Time;durP1;ratioP1;P1;durP2;ratioP2;P2;SDS_P1;SDS_P2;PMS_P1;PMS_P2;Temp;Humidity;BMP_temperature;BMP_pressure;BME280_temperature;BME280_humidity;BME280_pressure;Samples;Min_cycle;Max_cycle;Signal;HPM_P1;HPM_P2
2023/05/29 00:01:42;;;;;;;15.25;8.73;;;;;;;-142.57;95.99;115900.28;4903235;29;20092;-88
2023/05/29 00:04:08;;;;;;;18.15;8.48;;;;;;;-142.57;95.32;115900.28;4903958;29;20104;-87
2023/05/29 00:06:33;;;;;;;15.00;8.50;;;;;;;-142.57;94.07;115900.28;4900691;29;20064;-86
2023/05/29 00:08:59;;;;;;;21.35;8.80;;;;;;;-142.57;96.14;115900.28;4901474;29;20032;-86
2023/05/29 00:11:25;;;;;;;13.77;8.43;;;;;;;-142.57;97.27;115900.28;4901544;29;20032;-84
2023/05/29 00:13:51;;;;;;;15.50;8.35;;;;;;;-142.57;98.96;115900.28;4900564;29;20036;-86
2023/05/29 00:16:17;;;;;;;20.35;8.30;;;;;;;-142.57;99.23;115900.28;4901128;29;20036;-86
2023/05/29 00:18:45;;;;;;;15.55;9.10;;;;;;;-142.57;98.40;115900.28;4901344;29;20079;-86
2023/05/29 00:21:12;;;;;;;14.30;8.52;;;;;;;-142.57;100.00;115900.28;4900302;29;20032;-88
2023/05/29 00:23:38;;;;;;;17.00;8.57;;;;;;;-142.57;100.00;115900.28;4901076;29;20047;-87
2023/05/29 00:26:03;;;;;;;14.20;8.80;;;;;;;-142.57;100.00;115900.28;4901372;29;20036;-85
2023/05/29 00:28:29;;;;;;;12.60;8.43;;;;;;;-142.57;100.00;115900.28;4901515;29;20161;-86
2023/05/29 00:30:54;;;;;;;13.77;8.00;;;;;;;-142.57;100.00;115900.28;4901263;29;20036;-86
2023/05/29 00:33:20;;;;;;;15.82;8.07;;;;;;;-142.57;100.00;115900.28;4900804;29;20092;-84
2023/05/29 00:35:46;;;;;;;11.60;7.93;;;;;;;-142.57;100.00;115900.28;4900167;29;20048;-85
2023/05/29 00:38:11;;;;;;;18.38;8.85;;;;;;;-142.57;100.00;115900.28;4901145;29;20047;-85
2023/05/29 00:40:37;;;;;;;15.60;8.15;;;;;;;-142.57;100.00;115900.28;4899749;29;20137;-85
2023/05/29 00:43:02;;;;;;;12.60;8.05;;;;;;;-142.57;100.00;115900.28;4901211;29;20062;-85
2023/05/29 00:45:28;;;;;;;19.70;8.52;;;;;;;-142.57;100.00;115900.28;4899719;29;20116;-87
2023/05/29 00:47:54;;;;;;;12.55;8.65;;;;;;;-142.57;98.73;115900.28;4900388;29;20087;-86
2023/05/29 00:50:21;;;;;;;12.73;8.32;;;;;;;-142.57;97.58;115900.28;4899417;29;20116;-85
2023/05/29 00:52:47;;;;;;;17.08;9.05;;;;;;;-142.57;97.39;115900.28;4899517;29;20068;-85
2023/05/29 00:55:13;;;;;;;11.30;7.72;;;;;;;-142.57;98.23;115900.28;4900985;29;20491;-85
2023/05/29 00:57:39;;;;;;;18.95;8.57;;;;;;;-142.57;98.87;115900.28;4905006;29;20100;-86
2023/05/29 01:00:08;;;;;;;14.77;8.60;;;;;;;-142.57;100.00;115900.28;4887560;29;20127;-87
2023/05/29 01:02:36;;;;;;;16.73;9.82;;;;;;;-142.57;100.00;115900.28;4902713;29;20064;-85
2023/05/29 01:05:02;;;;;;;13.88;9.02;;;;;;;-142.57;100.00;115900.28;4900439;29;20062;-87
2023/05/29 01:07:27;;;;;;;16.10;8.75;;;;;;;-142.57;98.97;115900.28;4900145;29;20045;-86
2023/05/29 01:09:53;;;;;;;13.43;7.78;;;;;;;-142.57;97.96;115900.28;4899223;29;20403;-87
2023/05/29 01:12:30;;;;;;;16.10;8.23;;;;;;;-142.57;99.82;115900.28;4901123;29;20471;-87
2023/05/29 01:15:21;;;;;;;14.95;8.73;;;;;;;-142.57;100.00;115900.28;4899108;29;20112;-84
2023/05/29 01:18:01;;;;;;;15.30;7.95;;;;;;;-142.57;100.00;115900.28;4900112;29;20071;-87
2023/05/29 01:20:50;;;;;;;23.05;8.35;;;;;;;-142.57;100.00;115900.28;4899380;29;20055;-85
2023/05/29 01:23:32;;;;;;;18.63;8.15;;;;;;;-142.57;100.00;115900.28;4900437;29;20376;-85
2023/05/29 01:26:01;;;;;;;18.60;8.60;;;;;;;-142.57;100.00;115900.28;4900199;29;20115;-85
2023/05/29 01:28:33;;;;;;;15.32;8.65;;;;;;;-142.57;100.00;115900.28;4907466;29;20276;-85
2023/05/29 01:31:00;;;;;;;12.07;8.65;;;;;;;-142.57;100.00;115900.28;4922003;29;20033;-84
2023/05/29 01:33:27;;;;;;;13.52;9.10;;;;;;;-142.57;100.00;115900.28;4922272;29;21161;-85
2023/05/29 01:35:53;;;;;;;18.25;8.93;;;;;;;-142.57;100.00;115900.28;4921443;29;20052;-86
2023/05/29 01:38:18;;;;;;;15.35;8.40;;;;;;;-142.57;100.00;115900.28;4921940;29;20092;-83
2023/05/29 01:41:05;;;;;;;18.80;9.95;;;;;;;-142.57;100.00;115900.28;4920811;29;20045;-86
2023/05/29 01:43:32;;;;;;;17.70;9.45;;;;;;;-142.57;100.00;115900.28;4922495;29;20028;-85
2023/05/29 01:45:57;;;;;;;24.45;9.70;;;;;;;-142.57;100.00;115900.28;4922486;29;20084;-85
2023/05/29 01:48:24;;;;;;;17.08;9.18;;;;;;;-142.57;100.00;115900.28;4922512;29;20088;-86
2023/05/29 01:54:36;;;;;;;19.02;9.88;;;;;;;-142.57;100.00;115900.28;4920102;29;20112;-83
2023/05/29 01:57:02;;;;;;;17.42;8.50;;;;;;;-142.57;100.00;115900.28;4920470;29;20036;-82
2023/05/29 02:03:16;;;;;;;23.58;9.63;;;;;;;-142.57;100.00;115900.28;4914985;29;20075;-84
2023/05/29 02:05:42;;;;;;;17.40;9.43;;;;;;;-142.57;100.00;115900.28;4904182;29;20040;-86
2023/05/29 02:08:07;;;;;;;13.18;9.00;;;;;;;-142.57;100.00;115900.28;4905316;29;20060;-88
2023/05/29 02:10:35;;;;;;;16.83;9.13;;;;;;;-142.57;100.00;115900.28;4912944;29;20104;-85
2023/05/29 02:13:00;;;;;;;18.45;8.93;;;;;;;-142.57;100.00;115900.28;4919427;29;20040;-85
2023/05/29 02:15:26;;;;;;;15.85;9.43;;;;;;;-142.57;100.00;115900.28;4884146;29;20490;-84
2023/05/29 02:17:52;;;;;;;14.52;8.38;;;;;;;-142.57;100.00;115900.28;4898668;29;20513;-90
2023/05/29 02:20:18;;;;;;;14.48;8.45;;;;;;;-142.57;100.00;115900.28;4898351;29;20195;-90
2023/05/29 02:22:43;;;;;;;16.38;8.40;;;;;;;-142.57;100.00;115900.28;4898777;29;20052;-86
2023/05/29 02:25:09;;;;;;;14.55;9.15;;;;;;;-142.57;100.00;115900.28;4899031;29;20041;-84
2023/05/29 02:27:34;;;;;;;17.95;9.32;;;;;;;-142.57;100.00;115900.28;4899322;29;20040;-84
2023/05/29 02:30:00;;;;;;;14.85;9.15;;;;;;;-142.57;100.00;115900.28;4899568;29;20117;-87
2023/05/29 02:32:27;;;;;;;21.05;8.98;;;;;;;-142.57;100.00;115900.28;4899820;29;20045;-87
2023/05/29 02:34:54;;;;;;;15.18;8.55;;;;;;;-142.57;100.00;115900.28;4899482;29;20055;-85
2023/05/29 02:37:19;;;;;;;16.75;8.68;;;;;;;-142.57;100.00;115900.28;4899420;29;20048;-85
2023/05/29 02:39:45;;;;;;;21.58;9.82;;;;;;;-142.57;100.00;115900.28;4897984;29;20044;-85
2023/05/29 02:42:10;;;;;;;20.83;9.50;;;;;;;-142.57;100.00;115900.28;4907298;29;20049;-89
2023/05/29 02:44:37;;;;;;;15.43;9.45;;;;;;;-142.57;100.00;115900.28;4888566;29;20064;-85
2023/05/29 02:47:02;;;;;;;18.45;9.57;;;;;;;-142.57;100.00;115900.28;4881863;29;20044;-85
2023/05/29 02:49:28;;;;;;;16.75;9.32;;;;;;;-142.57;100.00;115900.28;4899159;29;20029;-83
2023/05/29 02:51:56;;;;;;;16.13;8.82;;;;;;;-142.57;100.00;115900.28;4898371;29;20376;-85
2023/05/29 02:54:28;;;;;;;22.10;9.98;;;;;;;-142.57;100.00;115900.28;4899279;29;20041;-84
2023/05/29 02:56:53;;;;;;;13.32;8.82;;;;;;;-142.57;100.00;115900.28;4899688;29;20095;-85
2023/05/29 02:59:19;;;;;;;19.90;9.90;;;;;;;-142.57;100.00;115900.28;4897065;29;20048;-84
2023/05/29 03:01:45;;;;;;;23.92;9.02;;;;;;;-142.57;100.00;115900.28;4898589;29;20100;-86
2023/05/29 03:04:11;;;;;;;19.95;9.75;;;;;;;-142.57;100.00;115900.28;4899570;29;20045;-84
2023/05/29 03:06:36;;;;;;;20.65;9.90;;;;;;;-142.57;100.00;115900.28;4902261;29;20045;-83
2023/05/29 03:09:04;;;;;;;15.45;9.13;;;;;;;-142.57;100.00;115900.28;4900821;29;20041;-87
2023/05/29 03:11:31;;;;;;;16.30;10.10;;;;;;;-142.57;100.00;115900.28;4901075;29;20028;-83
2023/05/29 03:13:57;;;;;;;17.20;9.68;;;;;;;-142.57;100.00;115900.28;4902106;29;20087;-88
2023/05/29 03:16:22;;;;;;;21.73;9.88;;;;;;;-142.57;100.00;115900.28;4901991;29;20041;-86
2023/05/29 03:18:48;;;;;;;15.27;9.57;;;;;;;-142.57;100.00;115900.28;4900363;29;20131;-85
2023/05/29 03:21:17;;;;;;;20.42;10.00;;;;;;;-142.57;100.00;115900.28;4902226;29;20044;-84
2023/05/29 03:23:43;;;;;;;24.60;10.43;;;;;;;-142.57;100.00;115900.28;4885427;29;20032;-85
2023/05/29 03:26:10;;;;;;;19.38;10.68;;;;;;;-142.57;100.00;115900.28;4900517;29;20116;-83
2023/05/29 03:28:37;;;;;;;22.17;9.98;;;;;;;-142.57;100.00;115900.28;4900609;29;20040;-85
2023/05/29 03:31:08;;;;;;;19.10;10.30;;;;;;;-142.57;100.00;115900.28;4900519;29;20473;-85
2023/05/29 03:33:35;;;;;;;17.00;10.30;;;;;;;-142.57;100.00;115900.28;4900516;29;20040;-87
2023/05/29 03:36:31;;;;;;;17.52;10.68;;;;;;;-142.57;100.00;115900.28;4890356;29;20057;-87
2023/05/29 03:38:57;;;;;;;20.77;10.32;;;;;;;-142.57;100.00;115900.28;4904169;29;20405;-87
2023/05/29 03:41:22;;;;;;;22.70;10.05;;;;;;;-142.57;100.00;115900.28;4918741;29;20047;-84
2023/05/29 03:43:50;;;;;;;23.35;10.40;;;;;;;-142.57;100.00;115900.28;4918944;29;20036;-85
2023/05/29 03:46:19;;;;;;;15.20;10.13;;;;;;;-142.57;100.00;115900.28;4918952;29;20074;-86
2023/05/29 03:48:45;;;;;;;19.73;11.23;;;;;;;-142.57;100.00;115900.28;4919281;29;20067;-83
2023/05/29 03:51:11;;;;;;;23.08;10.57;;;;;;;-142.57;100.00;115900.28;4919247;29;20084;-84
2023/05/29 03:53:37;;;;;;;22.30;10.15;;;;;;;-142.57;100.00;115900.28;4902820;29;20046;-84
2023/05/29 03:56:02;;;;;;;21.67;11.25;;;;;;;-142.57;100.00;115900.28;4918981;29;20032;-84
2023/05/29 03:58:28;;;;;;;17.92;10.85;;;;;;;-142.57;100.00;115900.28;4920245;29;20036;-86
2023/05/29 04:00:54;;;;;;;25.55;11.10;;;;;;;-142.57;100.00;115900.28;4918953;29;20040;-83
2023/05/29 04:03:21;;;;;;;22.02;10.55;;;;;;;-142.57;100.00;115900.28;4918528;29;20032;-84
2023/05/29 04:05:47;;;;;;;25.50;11.57;;;;;;;-142.57;100.00;115900.28;4918638;29;20096;-84
2023/05/29 04:08:13;;;;;;;24.17;10.35;;;;;;;-142.57;100.00;115900.28;4919966;29;20473;-85
2023/05/29 04:10:39;;;;;;;23.38;10.60;;;;;;;-142.57;100.00;115900.28;4918408;29;20394;-84
2023/05/29 04:13:06;;;;;;;18.10;10.05;;;;;;;-142.57;100.00;115900.28;4918106;29;20032;-85
2023/05/29 04:15:33;;;;;;;24.35;10.15;;;;;;;-142.57;100.00;115900.28;4917722;29;20091;-84
2023/05/29 04:17:59;;;;;;;20.77;10.00;;;;;;;-142.57;100.00;115900.28;4918368;29;20028;-85
2023/05/29 04:20:25;;;;;;;23.20;10.57;;;;;;;-142.57;100.00;115900.28;4918674;29;20055;-83
2023/05/29 04:22:51;;;;;;;23.15;11.05;;;;;;;-142.57;100.00;115900.28;4919337;29;20067;-88
2023/05/29 04:25:17;;;;;;;24.25;11.18;;;;;;;-142.57;100.00;115900.28;4920320;29;20043;-86
2023/05/29 04:27:48;;;;;;;19.48;10.50;;;;;;;-142.57;100.00;115900.28;4918307;29;20123;-85
2023/05/29 04:30:15;;;;;;;17.35;10.55;;;;;;;-142.57;100.00;115900.28;4917822;29;20040;-84
2023/05/29 04:32:44;;;;;;;22.48;11.20;;;;;;;-142.57;100.00;115900.28;4902701;29;20446;-86
2023/05/29 04:35:10;;;;;;;28.00;13.20;;;;;;;-142.57;100.00;115900.28;4918157;29;20127;-85
2023/05/29 04:37:40;;;;;;;25.77;14.75;;;;;;;-142.57;100.00;115900.28;4918216;29;20048;-85
2023/05/29 04:40:11;;;;;;;25.17;15.00;;;;;;;-142.57;100.00;115900.28;4918137;29;20040;-86
2023/05/29 04:42:37;;;;;;;24.05;15.10;;;;;;;-142.57;100.00;115900.28;4902618;29;20032;-84
2023/05/29 04:45:06;;;;;;;34.33;18.10;;;;;;;-142.57;100.00;115900.28;4917946;29;20152;-86
2023/05/29 04:47:42;;;;;;;30.33;18.65;;;;;;;-142.57;100.00;115900.28;4917878;29;20466;-84
2023/05/29 04:50:13;;;;;;;25.77;17.77;;;;;;;-142.57;100.00;115900.28;4917680;29;20051;-83
2023/05/29 04:52:40;;;;;;;31.10;18.05;;;;;;;-142.57;100.00;115900.28;4902290;29;20036;-86
2023/05/29 04:55:11;;;;;;;31.63;17.98;;;;;;;-142.57;100.00;115900.28;4918326;29;20020;-84
2023/05/29 04:57:37;;;;;;;29.88;17.88;;;;;;;-142.57;100.00;115900.28;4918965;29;20200;-86
2023/05/29 05:00:06;;;;;;;28.52;15.82;;;;;;;-142.57;100.00;115900.28;4920870;29;20102;-84
2023/05/29 05:02:40;;;;;;;30.67;17.73;;;;;;;-142.57;100.00;115900.28;4937770;29;20058;-87
2023/05/29 05:05:06;;;;;;;29.55;16.80;;;;;;;-142.57;100.00;115900.28;4921897;29;20044;-85
2023/05/29 05:07:32;;;;;;;32.70;17.00;;;;;;;-142.57;100.00;115900.28;4918950;29;20055;-85
2023/05/29 05:09:58;;;;;;;36.90;16.67;;;;;;;-142.57;100.00;115900.28;4912979;29;20036;-84
2023/05/29 05:12:26;;;;;;;28.63;17.90;;;;;;;-142.57;100.00;115900.28;4900119;29;20123;-86
2023/05/29 05:14:52;;;;;;;28.52;17.27;;;;;;;-142.57;100.00;115900.28;4899500;29;20502;-86
2023/05/29 05:17:18;;;;;;;29.67;17.65;;;;;;;-142.57;100.00;115900.28;4884590;29;20064;-89
2023/05/29 05:19:43;;;;;;;28.13;19.05;;;;;;;-142.57;100.00;115900.28;4884492;29;20387;-83
2023/05/29 05:22:10;;;;;;;32.78;18.52;;;;;;;-142.57;100.00;115900.28;4901306;29;20033;-84
2023/05/29 05:24:36;;;;;;;32.17;18.70;;;;;;;-142.57;100.00;115900.28;4901028;29;20135;-88
2023/05/29 05:27:04;;;;;;;31.52;18.98;;;;;;;-142.57;100.00;115900.28;4898667;29;20072;-88
2023/05/29 05:29:29;;;;;;;31.33;20.58;;;;;;;-142.57;100.00;115900.28;4898115;29;20060;-81
2023/05/29 05:31:56;;;;;;;33.65;19.98;;;;;;;-142.57;100.00;115900.28;4898305;29;20043;-82
2023/05/29 05:34:22;;;;;;;33.55;20.27;;;;;;;-142.57;100.00;115900.28;4898274;29;20035;-86
2023/05/29 05:36:51;;;;;;;35.38;20.60;;;;;;;-142.57;100.00;115900.28;4899417;29;20414;-86
2023/05/29 05:39:17;;;;;;;33.28;19.70;;;;;;;-142.57;100.00;115900.28;4904835;29;20148;-87
2023/05/29 05:41:46;;;;;;;44.88;21.27;;;;;;;-142.57;100.00;115900.28;4912641;29;20039;-86
2023/05/29 05:44:28;;;;;;;32.75;21.23;;;;;;;-142.57;100.00;115900.28;4912119;29;20032;-88
2023/05/29 05:47:09;;;;;;;37.58;22.08;;;;;;;-142.57;100.00;115900.28;4911382;29;20039;-90
2023/05/29 05:49:36;;;;;;;41.22;23.02;;;;;;;-142.57;100.00;115900.28;4907643;29;20073;-87
2023/05/29 05:52:01;;;;;;;38.90;22.67;;;;;;;-142.57;100.00;115900.28;4905797;29;20037;-86
2023/05/29 05:54:27;;;;;;;34.88;21.00;;;;;;;-142.57;100.00;115900.28;4889891;29;20041;-90
2023/05/29 05:56:53;;;;;;;42.70;22.60;;;;;;;-142.57;100.00;115900.28;4907139;29;20032;-87
2023/05/29 05:59:19;;;;;;;36.58;20.38;;;;;;;-142.57;100.00;115900.28;4903174;29;20032;-85
2023/05/29 06:01:47;;;;;;;35.25;17.73;;;;;;;-142.57;100.00;115900.28;4901298;29;20526;-83
2023/05/29 06:04:13;;;;;;;31.10;18.25;;;;;;;-142.57;100.00;115900.28;4889183;29;20049;-86
2023/05/29 06:06:46;;;;;;;27.35;16.55;;;;;;;-142.57;100.00;115900.28;4907844;29;20044;-85
2023/05/29 06:09:14;;;;;;;32.17;16.13;;;;;;;-142.57;100.00;115900.28;4908029;29;20104;-88
2023/05/29 06:11:40;;;;;;;25.25;15.75;;;;;;;-142.57;100.00;115900.28;4892806;29;20066;-85
2023/05/29 06:14:08;;;;;;;26.05;15.85;;;;;;;-142.57;100.00;115900.28;4889766;29;20041;-84
2023/05/29 06:16:35;;;;;;;24.38;15.85;;;;;;;-142.57;98.24;115900.28;4903992;29;20037;-83
2023/05/29 06:19:04;;;;;;;34.15;17.15;;;;;;;-142.57;93.76;115900.28;4906415;29;20039;-87
2023/05/29 06:22:08;;;;;;;36.15;16.08;;;;;;;-142.57;92.01;115900.28;4910220;29;20087;-87
2023/05/29 06:24:57;;;;;;;29.42;17.73;;;;;;;-142.57;90.52;115900.28;4909002;29;20096;-85
2023/05/29 06:27:25;;;;;;;32.25;20.60;;;;;;;-142.57;82.42;115900.28;4915500;23;20048;-83
2023/05/29 06:30:00;;;;;;;34.17;19.52;;;;;;;-142.57;86.53;115900.28;4914246;29;20032;-86
2023/05/29 06:32:54;;;;;;;35.00;18.88;;;;;;;-142.57;87.29;115900.28;4911908;29;20053;-85
2023/05/29 06:35:29;;;;;;;31.10;19.58;;;;;;;-142.57;84.64;115900.28;4892915;29;20041;-86
2023/05/29 06:38:00;;;;;;;30.95;19.73;;;;;;;-142.57;81.15;115900.28;4897106;29;20057;-82
2023/05/29 06:40:31;;;;;;;35.35;20.05;;;;;;;-142.57;78.58;115900.28;4897979;29;20041;-88
2023/05/29 06:43:00;;;;;;;33.92;21.80;;;;;;;-142.57;82.91;115900.28;4880103;29;20108;-84
2023/05/29 06:45:38;;;;;;;29.55;21.48;;;;;;;-142.57;83.23;115900.28;4910144;29;20047;-85
2023/05/29 06:48:03;;;;;;;33.40;22.15;;;;;;;-142.57;84.87;115900.28;4910261;29;20056;-85
2023/05/29 06:50:48;;;;;;;46.03;23.95;;;;;;;-142.57;91.10;115900.28;4915059;29;20056;-84
2023/05/29 06:53:32;;;;;;;46.03;22.42;;;;;;;-142.57;91.77;115900.28;4910647;29;20065;-81
2023/05/29 06:55:59;;;;;;;44.63;22.95;;;;;;;-142.57;91.00;115900.28;4908507;29;20045;-82
2023/05/29 06:58:25;;;;;;;38.38;25.15;;;;;;;-142.57;92.87;115900.28;4907729;29;20032;-84
2023/05/29 07:00:50;;;;;;;45.25;25.45;;;;;;;-142.57;94.23;115900.28;4902747;29;20029;-82
2023/05/29 07:03:26;;;;;;;36.92;23.60;;;;;;;-142.57;96.46;115900.28;4902751;29;20029;-84
2023/05/29 07:05:52;;;;;;;44.00;24.20;;;;;;;-142.57;99.55;115900.28;4906894;29;20042;-84
2023/05/29 07:08:20;;;;;;;44.35;26.05;;;;;;;-142.57;99.55;115900.28;4902429;29;20043;-84
2023/05/29 07:10:48;;;;;;;40.20;23.40;;;;;;;-142.57;99.36;115900.28;4905752;29;20041;-86
2023/05/29 07:13:17;;;;;;;41.42;23.98;;;;;;;-142.57;98.63;115900.28;4907708;29;20427;-84
2023/05/29 07:15:44;;;;;;;39.30;23.90;;;;;;;-142.57;95.42;115900.28;4910117;29;20048;-84
2023/05/29 07:18:11;;;;;;;55.17;24.08;;;;;;;-142.57;94.14;115900.28;4888135;29;20044;-86
2023/05/29 07:20:38;;;;;;;39.92;23.70;;;;;;;-142.57;89.90;115900.28;4902024;29;20040;-85
2023/05/29 07:23:03;;;;;;;34.30;22.98;;;;;;;-142.57;87.26;115900.28;4901032;29;20356;-85
2023/05/29 07:25:30;;;;;;;35.88;23.10;;;;;;;-142.57;87.31;115900.28;4901614;29;20124;-82
2023/05/29 07:27:56;;;;;;;38.67;23.20;;;;;;;-142.57;85.67;115900.28;4902632;29;20045;-85
2023/05/29 07:30:22;;;;;;;36.78;22.50;;;;;;;-142.57;87.42;115900.28;4894194;29;20043;-86
2023/05/29 07:32:49;;;;;;;37.38;21.50;;;;;;;-142.57;83.21;115900.28;4898120;29;20031;-88
2023/05/29 07:35:22;;;;;;;33.67;21.00;;;;;;;-142.57;82.38;115900.28;4902412;29;20029;-87
2023/05/29 07:37:49;;;;;;;43.03;21.58;;;;;;;-142.57;78.63;115900.28;4903008;29;20051;-84
2023/05/29 07:40:15;;;;;;;44.60;22.23;;;;;;;-142.57;81.02;115900.28;4900239;29;20123;-87
2023/05/29 07:42:56;;;;;;;44.55;22.52;;;;;;;-142.57;82.54;115900.28;4900872;29;20631;-85
2023/05/29 07:45:26;;;;;;;36.67;23.35;;;;;;;-142.57;83.70;115900.28;4900858;29;20041;-84
2023/05/29 07:47:53;;;;;;;36.05;21.95;;;;;;;-142.57;83.27;115900.28;4898293;29;20119;-87
2023/05/29 07:50:19;;;;;;;31.88;21.80;;;;;;;-142.57;81.46;115900.28;4887745;29;20116;-84
2023/05/29 07:52:45;;;;;;;40.97;22.42;;;;;;;-142.57;79.19;115900.28;4897791;29;20040;-83
2023/05/29 07:55:11;;;;;;;42.05;21.20;;;;;;;-142.57;79.44;115900.28;4902396;29;20115;-87
2023/05/29 07:57:39;;;;;;;31.00;19.08;;;;;;;-142.57;72.37;115900.28;4896337;29;20052;-86
2023/05/29 08:00:07;;;;;;;30.10;19.60;;;;;;;-142.57;70.65;115900.28;4899848;29;20041;-83
2023/05/29 08:02:33;;;;;;;30.05;19.73;;;;;;;-142.57;69.78;115900.28;4900242;29;20072;-84
2023/05/29 08:05:38;;;;;;;33.50;19.50;;;;;;;-142.57;70.88;115900.28;4897730;29;20052;-87
2023/05/29 08:08:12;;;;;;;38.00;19.33;;;;;;;-142.57;67.45;115900.28;4867208;29;20119;-83
2023/05/29 08:10:37;;;;;;;33.92;18.00;;;;;;;-142.57;63.37;115900.28;4864610;29;20059;-91
2023/05/29 08:13:03;;;;;;;26.75;17.48;;;;;;;-142.57;62.39;115900.28;4890355;29;20101;-82
2023/05/29 08:15:31;;;;;;;26.20;15.80;;;;;;;-142.57;59.91;115900.28;4884721;29;20052;-85
2023/05/29 08:17:57;;;;;;;26.45;17.55;;;;;;;-142.57;58.98;115900.28;4899026;29;20406;-90
2023/05/29 08:20:23;;;;;;;29.55;17.50;;;;;;;-142.57;60.76;115900.28;4867779;29;20545;-86
2023/05/29 08:22:49;;;;;;;29.65;16.92;;;;;;;-142.57;61.90;115900.28;4897618;29;20135;-84
2023/05/29 08:25:15;;;;;;;33.75;17.50;;;;;;;-142.57;60.17;115900.28;4881353;29;20092;-85
2023/05/29 08:27:40;;;;;;;24.52;16.10;;;;;;;-142.57;60.64;115900.28;4882631;29;20049;-89
2023/05/29 08:30:06;;;;;;;27.13;15.80;;;;;;;-142.57;60.58;115900.28;4878532;29;20415;-87
2023/05/29 08:32:32;;;;;;;28.58;15.38;;;;;;;-142.57;57.25;115900.28;4874044;29;20555;-88
2023/05/29 08:34:57;;;;;;;28.30;16.30;;;;;;;-142.57;56.64;115900.28;4886378;29;20072;-84
2023/05/29 08:37:23;;;;;;;23.33;14.15;;;;;;;-142.57;55.05;115900.28;4901427;29;20053;-87
2023/05/29 08:39:50;;;;;;;28.42;15.57;;;;;;;-142.57;54.82;115900.28;4900520;29;20068;-87
2023/05/29 08:42:29;;;;;;;20.30;13.68;;;;;;;-142.57;52.84;115900.28;4885271;29;20041;-86
2023/05/29 08:45:01;;;;;;;25.15;13.20;;;;;;;-142.57;50.76;115900.28;4892151;29;20037;-90
2023/05/29 08:47:39;;;;;;;26.55;13.82;;;;;;;-142.57;51.55;115900.28;4888674;29;20223;-87
2023/05/29 08:50:18;;;;;;;22.92;14.50;;;;;;;-142.57;52.85;115900.28;4908152;29;20115;-91
2023/05/29 08:52:46;;;;;;;18.65;13.13;;;;;;;-142.57;52.82;115900.28;4903983;29;20040;-88
2023/05/29 08:55:12;;;;;;;24.25;13.90;;;;;;;-142.57;54.02;115900.28;4908267;29;20053;-88
2023/05/29 08:57:43;;;;;;;23.85;13.95;;;;;;;-142.57;54.43;115900.28;4905414;29;20044;-86
2023/05/29 09:00:12;;;;;;;32.35;14.15;;;;;;;-142.57;54.73;115900.28;4902518;29;20408;-86
2023/05/29 09:02:43;;;;;;;27.88;14.23;;;;;;;-142.57;52.82;115900.28;4902498;29;20040;-90
2023/05/29 09:05:13;;;;;;;20.80;12.98;;;;;;;-142.57;50.13;115900.28;4911621;29;20044;-88
2023/05/29 09:07:40;;;;;;;20.73;11.15;;;;;;;-142.57;49.77;115900.28;4901006;29;20044;-87
2023/05/29 09:10:09;;;;;;;21.05;11.82;;;;;;;-142.57;48.49;115900.28;4890188;29;20028;-91
2023/05/29 09:12:35;;;;;;;16.48;10.85;;;;;;;-142.57;46.75;115900.28;4903611;29;20153;-90
2023/05/29 09:15:01;;;;;;;23.95;13.15;;;;;;;-142.57;47.31;115900.28;4905935;29;20514;-88
2023/05/29 09:17:33;;;;;;;25.30;12.85;;;;;;;-142.57;48.05;115900.28;4887766;29;20044;-86
2023/05/29 09:20:00;;;;;;;18.25;12.20;;;;;;;-142.57;47.56;115900.28;4898583;29;20059;-88
2023/05/29 09:22:26;;;;;;;25.05;12.60;;;;;;;-142.57;45.59;115900.28;4883709;29;20111;-87
2023/05/29 09:24:51;;;;;;;22.08;13.10;;;;;;;-142.57;45.44;115900.28;4900957;29;20091;-87
2023/05/29 09:27:17;;;;;;;23.23;12.52;;;;;;;-142.57;44.96;115900.28;4901121;29;20698;-88
2023/05/29 09:29:45;;;;;;;19.70;12.70;;;;;;;-142.57;45.12;115900.28;4901312;29;20054;-88
2023/05/29 09:32:18;;;;;;;19.95;11.80;;;;;;;-142.57;43.61;115900.28;4900409;29;20537;-87
2023/05/29 09:34:44;;;;;;;22.83;11.27;;;;;;;-142.57;43.47;115900.28;4900983;29;20504;-86
2023/05/29 09:37:21;;;;;;;20.08;10.50;;;;;;;-142.57;43.14;115900.28;4905956;29;20065;-88
2023/05/29 09:39:48;;;;;;;23.98;11.27;;;;;;;-142.57;44.37;115900.28;4905784;29;20069;-87
2023/05/29 09:42:24;;;;;;;18.77;11.20;;;;;;;-142.57;42.94;115900.28;4913969;29;20049;-89
2023/05/29 09:44:59;;;;;;;28.00;12.32;;;;;;;-142.57;42.99;115900.28;4911992;29;20104;-85
2023/05/29 09:47:32;;;;;;;16.77;10.10;;;;;;;-142.57;42.94;115900.28;4874905;29;20080;-91
2023/05/29 09:50:07;;;;;;;16.25;11.60;;;;;;;-142.57;41.79;115900.28;4876147;29;20049;-88
2023/05/29 09:52:36;;;;;;;24.60;10.98;;;;;;;-142.57;41.18;115900.28;4887785;29;20116;-87
2023/05/29 09:55:02;;;;;;;17.25;10.90;;;;;;;-142.57;41.29;115900.28;4902230;29;20036;-87
2023/05/29 09:57:29;;;;;;;21.67;10.23;;;;;;;-142.57;40.90;115900.28;4899937;29;20060;-85
2023/05/29 10:00:00;;;;;;;22.23;12.43;;;;;;;-142.57;42.20;115900.28;4897013;29;20108;-83
2023/05/29 10:02:26;;;;;;;153.25;19.85;;;;;;;-142.57;42.72;115900.28;4897321;29;20434;-84
2023/05/29 10:04:53;;;;;;;22.83;10.30;;;;;;;-142.57;43.58;115900.28;4895979;29;20062;-84
2023/05/29 10:07:27;;;;;;;25.38;11.57;;;;;;;-142.57;43.55;115900.28;4897074;29;20113;-85
2023/05/29 10:10:01;;;;;;;26.92;11.13;;;;;;;-142.57;42.20;115900.28;4895550;29;20036;-86
2023/05/29 10:12:28;;;;;;;15.77;9.40;;;;;;;-142.57;39.96;115900.28;4897457;29;20044;-87
2023/05/29 10:15:00;;;;;;;17.65;11.13;;;;;;;-142.57;39.98;115900.28;4896303;29;20059;-86
2023/05/29 10:17:31;;;;;;;19.42;9.38;;;;;;;-142.57;39.41;115900.28;4897597;29;20060;-87
2023/05/29 10:20:00;;;;;;;14.85;8.57;;;;;;;-142.57;39.42;115900.28;4899401;29;20069;-86
2023/05/29 10:22:28;;;;;;;15.68;8.63;;;;;;;-142.57;39.75;115900.28;4907246;29;20029;-84
2023/05/29 10:25:02;;;;;;;19.67;8.57;;;;;;;-142.57;38.96;115900.28;4891098;29;20168;-87
2023/05/29 10:27:28;;;;;;;15.13;8.40;;;;;;;-142.57;39.05;115900.28;5130583;23;20068;-84
2023/05/29 10:30:14;;;;;;;18.83;8.98;;;;;;;-142.57;38.82;115900.28;4912934;29;20040;-82
2023/05/29 10:33:17;;;;;;;18.15;9.60;;;;;;;-142.57;39.34;115900.28;4910779;29;20043;-83
2023/05/29 10:36:04;;;;;;;16.77;9.07;;;;;;;-142.57;38.98;115900.28;4922585;28;20095;-85
2023/05/29 10:38:31;;;;;;;18.02;9.30;;;;;;;-142.57;38.70;115900.28;4932216;29;20044;-81
2023/05/29 10:41:26;;;;;;;37.45;10.02;;;;;;;-142.57;38.28;115900.28;4914679;29;20072;-84
2023/05/29 10:43:57;;;;;;;25.90;9.18;;;;;;;-142.57;37.02;115900.28;4910711;29;20047;-82
2023/05/29 10:46:42;;;;;;;16.30;8.73;;;;;;;-142.57;37.05;115900.28;4912549;29;20053;-86
2023/05/29 10:49:17;;;;;;;16.08;8.27;;;;;;;-142.57;36.79;115900.28;4909178;29;20096;-84
2023/05/29 10:51:43;;;;;;;12.77;7.22;;;;;;;-142.57;36.77;115900.28;4913170;29;20059;-83
2023/05/29 10:54:09;;;;;;;17.05;6.72;;;;;;;-142.57;37.99;115900.28;4904040;29;20073;-86
2023/05/29 10:56:35;;;;;;;17.77;8.88;;;;;;;-142.57;35.35;115900.28;4886673;29;20037;-84
2023/05/29 10:59:01;;;;;;;12.27;6.78;;;;;;;-142.57;35.17;115900.28;4900912;29;20137;-84
2023/05/29 11:01:30;;;;;;;15.35;6.97;;;;;;;-142.57;35.57;115900.28;4899659;29;20055;-86
2023/05/29 11:04:14;;;;;;;21.40;9.00;;;;;;;-142.57;35.94;115900.28;4905486;29;20040;-84
2023/05/29 11:06:39;;;;;;;21.15;8.80;;;;;;;-142.57;37.23;115900.28;4897730;29;20044;-82
2023/05/29 11:09:08;;;;;;;12.93;9.43;;;;;;;-142.57;37.58;115900.28;4896783;29;20072;-85